METAR Data
IDs: Format: Raw Decoded Include TAF

Data at: 1634 UTC 18 Feb 2019

METAR for:KDNS (Denison Muni, IA, US)
Text:KDNS 181615Z AUTO 32004KT 10SM CLR M12/M15 A3046 RMK AO2
Temperature:-12.0°C ( 10°F)
Dewpoint:-15.0°C ( 5°F) [RH = 78%]
Pressure (altimeter):30.46 inches Hg (1031.6 mb)
Winds:from the NW (320 degrees) at 5 MPH (4 knots; 2.1 m/s)
Visibility:10 or more sm (16+ km)
Ceiling:at least 12,000 feet AGL
Clouds:sky clear below 12,000 feet AGL
QC Flag:automated observation with no human augmentation